Time;durP1;ratioP1;P1;durP2;ratioP2;P2;SDS_P1;SDS_P2;PMS_P1;PMS_P2;Temp;Humidity;BMP_temperature;BMP_pressure;BME280_temperature;BME280_humidity;BME280_pressure;Samples;Min_cycle;Max_cycle;Signal;HPM_P1;HPM_P2
2023/01/10 00:01:22;;;;;;;18.60;5.22;;;4.40;99.90;;;;;;5010151;28;20046;-71
2023/01/10 00:03:48;;;;;;;8.43;3.83;;;4.40;99.90;;;;;;4992897;28;20073;-71
2023/01/10 00:06:14;;;;;;;11.23;4.10;;;4.40;99.90;;;;;;5009407;28;20046;-72
2023/01/10 00:08:40;;;;;;;9.25;5.15;;;4.40;99.90;;;;;;4991073;28;20427;-71
2023/01/10 00:13:22;;;;;;;18.70;6.13;;;4.40;99.90;;;;;;4982732;28;20050;-72
2023/01/10 00:13:55;;;;;;;12.60;5.50;;;4.40;99.90;;;;;;4988086;28;20060;-72
2023/01/10 00:16:21;;;;;;;22.48;5.80;;;4.40;99.90;;;;;;5001327;28;20415;-72
2023/01/10 00:18:47;;;;;;;12.32;5.28;;;4.30;99.90;;;;;;4991392;28;20053;-72
2023/01/10 00:21:15;;;;;;;13.48;5.28;;;4.30;99.90;;;;;;5008975;28;20384;-72
2023/01/10 00:23:42;;;;;;;;;;;4.30;99.90;;;;;;5010390;28;20132;-72
2023/01/10 00:26:08;;;;;;;12.70;3.88;;;4.30;99.90;;;;;;4990887;28;19961;-71
2023/01/10 00:28:34;;;;;;;14.00;4.97;;;4.20;99.90;;;;;;4992423;28;20095;-71
2023/01/10 00:31:03;;;;;;;17.75;5.25;;;4.20;99.90;;;;;;5009458;28;20037;-72
2023/01/10 00:33:32;;;;;;;12.73;5.38;;;4.20;99.90;;;;;;5009354;28;20518;-72
2023/01/10 00:35:59;;;;;;;12.95;4.72;;;4.20;99.90;;;;;;5008496;28;20044;-72
2023/01/10 00:38:25;;;;;;;19.20;5.72;;;4.10;99.90;;;;;;5003493;28;20050;-71
2023/01/10 00:40:50;;;;;;;19.17;4.55;;;4.10;99.90;;;;;;4979036;28;20491;-71
2023/01/10 00:46:01;;;;;;;20.25;5.85;;;4.10;99.90;;;;;;5008983;28;20057;-72
2023/01/10 00:48:27;;;;;;;15.45;5.57;;;4.10;99.90;;;;;;4978467;28;20049;-72
2023/01/10 00:50:53;;;;;;;23.20;5.50;;;4.10;99.90;;;;;;4991727;28;20053;-72
2023/01/10 00:53:19;;;;;;;17.75;5.68;;;4.10;99.90;;;;;;5005385;28;20108;-72
2023/01/10 00:55:45;;;;;;;19.83;4.88;;;4.10;99.90;;;;;;4991492;28;20057;-71
2023/01/10 00:58:13;;;;;;;14.95;5.50;;;4.10;99.90;;;;;;5008778;28;20054;-72
2023/01/10 01:00:39;;;;;;;21.38;6.30;;;4.10;99.90;;;;;;5008053;28;20045;-71
2023/01/10 01:03:06;;;;;;;22.33;5.32;;;4.20;99.90;;;;;;5008838;28;20460;-71
2023/01/10 01:05:32;;;;;;;28.05;6.70;;;4.20;99.90;;;;;;5008906;28;20499;-72
2023/01/10 01:07:58;;;;;;;21.02;6.28;;;4.30;99.90;;;;;;4990330;28;20077;-72
2023/01/10 01:10:27;;;;;;;18.10;6.05;;;4.30;99.90;;;;;;4993064;28;20059;-72
2023/01/10 01:12:57;;;;;;;;;;;4.30;99.90;;;;;;4988519;28;20050;-72
2023/01/10 01:15:23;;;;;;;17.63;5.15;;;4.30;99.90;;;;;;4986058;28;20364;-72
2023/01/10 01:17:49;;;;;;;22.05;5.57;;;4.30;99.90;;;;;;4996095;28;20058;-72
2023/01/10 01:20:15;;;;;;;19.80;6.10;;;4.30;99.90;;;;;;5006499;28;20503;-72
2023/01/10 01:22:41;;;;;;;13.50;5.82;;;4.30;99.90;;;;;;4991289;28;20459;-72
2023/01/10 01:25:07;;;;;;;20.35;6.65;;;4.30;99.90;;;;;;5007262;28;20096;-71
2023/01/10 01:27:33;;;;;;;19.38;6.03;;;4.30;99.90;;;;;;5005412;28;20420;-72
2023/01/10 01:30:00;;;;;;;23.23;7.57;;;4.40;99.90;;;;;;4994568;28;20058;-71
2023/01/10 01:32:27;;;;;;;30.38;6.53;;;4.40;99.90;;;;;;4994102;28;20595;-72
2023/01/10 01:34:52;;;;;;;30.23;7.55;;;4.40;99.90;;;;;;5006413;28;20454;-72
2023/01/10 01:37:18;;;;;;;23.80;6.30;;;4.40;99.90;;;;;;5007595;28;20450;-72
2023/01/10 01:39:47;;;;;;;21.40;7.53;;;4.50;99.90;;;;;;4991155;28;20410;-72
2023/01/10 01:42:25;;;;;;;23.40;6.45;;;4.50;99.90;;;;;;5007195;28;20419;-72
2023/01/10 01:45:21;;;;;;;20.75;6.30;;;4.50;99.90;;;;;;5007335;28;20073;-72
2023/01/10 01:47:55;;;;;;;31.67;6.90;;;4.60;99.90;;;;;;5006440;28;20057;-72
2023/01/10 01:50:32;;;;;;;34.95;8.32;;;4.60;99.90;;;;;;5004989;28;20073;-72
2023/01/10 01:53:02;;;;;;;29.67;7.75;;;4.60;99.90;;;;;;5003534;28;20058;-72
2023/01/10 01:55:30;;;;;;;30.08;8.98;;;4.70;99.90;;;;;;4982765;28;20502;-72
2023/01/10 01:57:59;;;;;;;46.92;7.03;;;4.70;99.90;;;;;;4981654;28;20043;-72
2023/01/10 02:00:24;;;;;;;33.75;7.50;;;4.70;99.90;;;;;;4991030;28;20050;-71
2023/01/10 02:02:54;;;;;;;18.55;6.28;;;4.70;99.90;;;;;;5007814;28;20037;-71
2023/01/10 02:05:21;;;;;;;36.03;7.63;;;4.70;99.90;;;;;;5007739;28;20103;-72
2023/01/10 02:07:52;;;;;;;24.27;7.95;;;4.70;99.90;;;;;;4996798;28;20427;-71
2023/01/10 02:10:38;;;;;;;22.25;6.70;;;4.70;99.90;;;;;;4974673;28;20085;-71
2023/01/10 02:13:06;;;;;;;16.88;5.93;;;4.70;99.90;;;;;;5006252;28;20554;-72
2023/01/10 02:15:32;;;;;;;26.80;7.30;;;4.70;99.90;;;;;;4988534;28;20053;-71
2023/01/10 02:18:00;;;;;;;9.30;2.53;;;4.60;99.90;;;;;;5008484;28;20081;-71
2023/01/10 02:20:29;;;;;;;26.30;7.70;;;4.60;99.90;;;;;;4972916;28;20554;-71
2023/01/10 02:23:16;;;;;;;27.92;6.93;;;4.60;99.90;;;;;;4989171;28;20042;-71
2023/01/10 02:25:47;;;;;;;20.98;6.57;;;4.60;99.90;;;;;;4987904;28;20054;-71
2023/01/10 02:28:35;;;;;;;22.15;5.03;;;4.60;99.90;;;;;;4983134;28;20049;-71
2023/01/10 02:31:15;;;;;;;22.50;6.80;;;4.60;99.90;;;;;;4986362;28;20443;-71
2023/01/10 02:33:56;;;;;;;22.27;6.57;;;4.50;99.90;;;;;;4990280;28;20058;-71
2023/01/10 02:36:27;;;;;;;26.77;7.32;;;4.50;99.90;;;;;;5005519;28;20104;-71
2023/01/10 02:39:19;;;;;;;22.40;6.57;;;4.50;99.90;;;;;;5007787;28;20061;-71
2023/01/10 02:41:54;;;;;;;16.40;6.00;;;4.50;99.90;;;;;;5002646;28;20852;-71
2023/01/10 02:44:30;;;;;;;23.52;6.82;;;4.40;99.90;;;;;;5006880;28;20149;-71
2023/01/10 02:46:55;;;;;;;28.50;7.20;;;4.40;99.90;;;;;;4973397;28;20127;-71
2023/01/10 02:49:21;;;;;;;25.40;6.95;;;4.40;99.90;;;;;;4988952;28;20078;-71
2023/01/10 02:51:47;;;;;;;26.05;6.68;;;4.40;99.90;;;;;;5007236;28;20074;-71
2023/01/10 02:54:19;;;;;;;32.70;8.27;;;4.40;99.90;;;;;;4989148;28;20095;-71
2023/01/10 02:57:14;;;;;;;23.67;7.95;;;4.40;99.90;;;;;;4992995;28;20060;-71
2023/01/10 02:59:51;;;;;;;37.13;7.22;;;4.40;99.90;;;;;;5007125;28;20100;-71
2023/01/10 03:02:48;;;;;;;22.58;5.75;;;4.40;99.90;;;;;;4997024;28;20045;-71
2023/01/10 03:05:26;;;;;;;23.13;6.38;;;4.40;99.90;;;;;;4988023;28;20069;-71
2023/01/10 03:08:10;;;;;;;20.45;6.25;;;4.40;99.90;;;;;;4996873;28;20050;-72
2023/01/10 03:11:04;;;;;;;26.95;6.55;;;4.40;99.90;;;;;;5013766;28;20045;-71
2023/01/10 03:13:29;;;;;;;22.83;7.28;;;4.40;99.90;;;;;;5009535;28;20128;-71
2023/01/10 03:15:58;;;;;;;15.35;6.00;;;4.40;99.90;;;;;;4995482;28;20136;-72
2023/01/10 03:18:30;;;;;;;23.02;7.72;;;4.50;99.90;;;;;;4996198;28;20515;-71
2023/01/10 03:20:57;;;;;;;22.55;6.93;;;4.50;99.90;;;;;;5012954;28;20056;-72
2023/01/10 03:23:24;;;;;;;20.70;7.25;;;4.50;99.90;;;;;;5013698;28;20057;-71
2023/01/10 03:25:51;;;;;;;30.35;8.27;;;4.50;99.90;;;;;;5013440;28;20041;-71
2023/01/10 03:28:27;;;;;;;19.17;6.68;;;4.50;99.90;;;;;;4995946;28;20384;-71
2023/01/10 03:31:03;;;;;;;21.73;5.97;;;4.60;99.90;;;;;;5001375;28;20046;-71
2023/01/10 03:33:31;;;;;;;35.38;7.65;;;4.60;99.90;;;;;;5011990;28;20064;-71
2023/01/10 03:36:21;;;;;;;20.75;7.53;;;4.60;99.90;;;;;;4981594;28;20542;-71
2023/01/10 03:39:16;;;;;;;29.23;7.22;;;4.60;99.90;;;;;;4998165;28;20062;-72
2023/01/10 03:41:52;;;;;;;21.48;6.90;;;4.60;99.90;;;;;;5005666;28;20525;-71
2023/01/10 03:44:43;;;;;;;24.30;6.63;;;4.60;99.90;;;;;;5011146;28;20054;-71
2023/01/10 03:47:20;;;;;;;28.02;7.80;;;4.60;99.90;;;;;;4992544;28;20052;-72
2023/01/10 03:49:52;;;;;;;30.25;7.13;;;4.60;99.90;;;;;;4988069;28;20079;-72
2023/01/10 03:52:19;;;;;;;28.35;8.23;;;4.60;99.90;;;;;;5006366;28;20514;-72
2023/01/10 03:54:46;;;;;;;31.48;7.00;;;4.60;99.90;;;;;;4995410;28;20052;-72
2023/01/10 03:57:21;;;;;;;20.73;6.07;;;4.70;99.90;;;;;;5013404;28;20414;-71
2023/01/10 03:59:52;;;;;;;29.83;8.20;;;4.60;99.90;;;;;;4975937;28;20073;-72
2023/01/10 04:02:18;;;;;;;16.30;7.60;;;4.70;99.90;;;;;;4984943;28;20054;-72
2023/01/10 04:04:44;;;;;;;14.55;6.03;;;4.70;99.90;;;;;;4974751;28;20050;-71
2023/01/10 04:07:10;;;;;;;28.20;8.30;;;4.70;99.90;;;;;;4998697;28;20116;-71
2023/01/10 04:09:35;;;;;;;26.52;6.38;;;4.70;99.90;;;;;;5002280;28;20042;-71
2023/01/10 04:12:01;;;;;;;19.60;7.75;;;4.80;99.90;;;;;;5012616;28;20136;-71
2023/01/10 04:14:28;;;;;;;26.15;6.97;;;4.70;99.90;;;;;;5011215;28;20038;-71
2023/01/10 04:16:54;;;;;;;23.45;7.15;;;4.80;99.90;;;;;;5009910;28;20511;-71
2023/01/10 04:19:20;;;;;;;25.92;7.95;;;4.80;99.90;;;;;;5009697;28;20096;-71
2023/01/10 04:21:45;;;;;;;19.58;7.13;;;4.80;99.90;;;;;;4990174;28;20042;-71
2023/01/10 04:24:11;;;;;;;18.15;6.93;;;4.80;99.90;;;;;;5009058;28;20369;-71
2023/01/10 04:26:36;;;;;;;30.90;8.43;;;4.80;99.90;;;;;;5008870;28;20176;-71
2023/01/10 04:29:04;;;;;;;34.95;8.57;;;4.90;99.90;;;;;;4991965;28;20410;-71
2023/01/10 04:31:31;;;;;;;33.05;8.75;;;4.90;99.90;;;;;;4975693;28;20458;-71
2023/01/10 04:33:56;;;;;;;27.75;7.35;;;4.90;99.90;;;;;;4988450;28;20097;-71
2023/01/10 04:36:22;;;;;;;40.90;9.15;;;4.90;99.90;;;;;;5007114;28;20053;-71
2023/01/10 04:38:47;;;;;;;22.95;6.43;;;4.90;99.90;;;;;;5008177;28;20079;-71
2023/01/10 04:41:13;;;;;;;21.35;6.72;;;4.90;99.90;;;;;;4972404;28;20079;-71
2023/01/10 04:43:39;;;;;;;21.00;6.90;;;4.90;99.90;;;;;;4983124;28;20057;-71
2023/01/10 04:46:04;;;;;;;25.33;8.05;;;4.90;99.90;;;;;;4982276;28;20053;-71
2023/01/10 04:48:30;;;;;;;20.88;6.82;;;4.90;99.90;;;;;;5009344;28;20177;-71
2023/01/10 04:50:56;;;;;;;26.83;6.53;;;4.90;99.90;;;;;;4988439;28;20045;-71
2023/01/10 04:53:22;;;;;;;20.80;7.10;;;4.80;99.90;;;;;;5007812;28;20550;-71
2023/01/10 04:55:48;;;;;;;20.05;7.07;;;4.80;99.90;;;;;;4991033;28;20045;-71
2023/01/10 04:58:13;;;;;;;20.40;7.63;;;4.80;99.90;;;;;;5010298;28;20042;-71
2023/01/10 05:00:39;;;;;;;21.48;6.47;;;4.80;99.90;;;;;;5004539;28;20133;-71
2023/01/10 05:03:05;;;;;;;27.02;8.55;;;4.80;99.90;;;;;;5006362;28;20041;-71
2023/01/10 05:05:31;;;;;;;24.65;7.60;;;4.80;99.90;;;;;;5009572;28;20046;-71
2023/01/10 05:07:57;;;;;;;16.85;6.20;;;4.80;99.90;;;;;;4980521;28;20092;-71
2023/01/10 05:10:23;;;;;;;16.83;6.35;;;4.80;99.90;;;;;;5008210;28;20046;-71
2023/01/10 05:12:49;;;;;;;20.83;7.25;;;4.80;99.90;;;;;;5007137;28;20042;-71
2023/01/10 05:15:14;;;;;;;29.75;7.70;;;4.80;99.90;;;;;;5008859;28;20068;-71
2023/01/10 05:17:40;;;;;;;24.33;7.72;;;4.80;99.90;;;;;;4985193;28;20149;-72
2023/01/10 05:20:06;;;;;;;30.00;7.90;;;4.80;99.90;;;;;;5008938;28;20042;-71
2023/01/10 05:22:32;;;;;;;34.08;7.80;;;4.80;99.90;;;;;;4990138;28;20052;-71
2023/01/10 05:24:58;;;;;;;19.58;7.57;;;4.90;99.90;;;;;;5008012;28;20056;-71
2023/01/10 05:27:24;;;;;;;24.70;8.57;;;4.90;99.90;;;;;;5008078;28;20046;-71
2023/01/10 05:29:50;;;;;;;34.90;8.57;;;4.80;99.90;;;;;;5008375;28;20450;-71
2023/01/10 05:32:15;;;;;;;29.83;7.90;;;4.80;99.90;;;;;;5006540;28;20189;-71
2023/01/10 05:34:41;;;;;;;25.83;8.38;;;4.80;99.90;;;;;;4988558;28;20787;-71
2023/01/10 05:37:07;;;;;;;23.20;7.63;;;4.90;99.90;;;;;;4995464;28;20093;-71
2023/01/10 05:39:32;;;;;;;32.45;8.10;;;4.90;99.90;;;;;;5008817;28;20049;-71
2023/01/10 05:41:59;;;;;;;31.60;7.10;;;4.80;99.90;;;;;;4995325;28;20042;-71
2023/01/10 05:44:24;;;;;;;34.13;8.80;;;4.90;99.90;;;;;;5006507;28;20049;-71
2023/01/10 05:46:50;;;;;;;29.88;8.93;;;4.80;99.90;;;;;;4989058;28;20073;-71
2023/01/10 05:49:16;;;;;;;27.58;8.60;;;4.80;99.90;;;;;;4992344;28;20073;-71
2023/01/10 05:51:41;;;;;;;23.10;6.95;;;4.80;99.90;;;;;;4961733;28;20085;-71
2023/01/10 05:54:07;;;;;;;27.85;8.57;;;4.80;99.90;;;;;;5003004;28;20521;-71
2023/01/10 05:56:33;;;;;;;33.58;8.02;;;4.90;99.90;;;;;;4990164;28;20054;-71
2023/01/10 05:58:59;;;;;;;27.83;7.30;;;4.90;99.90;;;;;;4995316;28;20052;-71
2023/01/10 06:01:24;;;;;;;28.38;7.70;;;4.90;99.90;;;;;;4987905;28;20037;-71
2023/01/10 06:03:50;;;;;;;38.17;9.18;;;4.90;99.90;;;;;;4998554;28;20049;-71
2023/01/10 06:06:19;;;;;;;24.25;8.02;;;4.90;99.90;;;;;;5006689;28;20056;-71
2023/01/10 06:08:44;;;;;;;36.22;8.90;;;5.00;99.90;;;;;;4998146;28;20058;-70
2023/01/10 06:11:10;;;;;;;30.20;7.68;;;5.00;99.90;;;;;;5003612;28;20046;-71
2023/01/10 06:13:35;;;;;;;23.60;9.30;;;5.00;99.90;;;;;;4990338;28;20053;-71
2023/01/10 06:16:01;;;;;;;36.70;9.43;;;5.10;99.90;;;;;;4989898;28;20533;-71
2023/01/10 06:18:27;;;;;;;37.28;9.05;;;5.00;99.90;;;;;;4989531;28;20113;-71
2023/01/10 06:20:53;;;;;;;29.67;9.00;;;5.10;99.90;;;;;;5006435;28;20129;-71
2023/01/10 06:23:18;;;;;;;34.20;9.85;;;5.10;99.90;;;;;;5003155;28;20080;-71
2023/01/10 06:25:44;;;;;;;32.70;9.18;;;5.20;99.90;;;;;;4989832;28;20057;-71
2023/01/10 06:28:12;;;;;;;30.02;10.77;;;5.20;99.90;;;;;;5007928;28;20046;-71
2023/01/10 06:30:40;;;;;;;28.60;8.77;;;5.20;99.90;;;;;;5007621;28;20448;-71
2023/01/10 06:33:07;;;;;;;;;;;5.20;99.90;;;;;;4990171;28;20055;-71
2023/01/10 06:35:33;;;;;;;27.30;8.57;;;5.20;99.90;;;;;;5006942;28;19928;-71
2023/01/10 06:37:59;;;;;;;31.00;9.63;;;5.20;99.90;;;;;;5000464;28;20125;-71
2023/01/10 06:40:26;;;;;;;30.50;10.52;;;5.30;99.90;;;;;;5004458;28;20906;-71
2023/01/10 06:42:52;;;;;;;27.52;9.52;;;5.30;99.90;;;;;;5007752;28;20046;-71
2023/01/10 06:45:18;;;;;;;29.90;8.60;;;5.30;99.90;;;;;;5002228;28;20502;-71
2023/01/10 06:47:44;;;;;;;37.10;10.15;;;5.30;99.90;;;;;;5007391;28;20056;-71
2023/01/10 06:50:11;;;;;;;39.90;9.88;;;5.30;99.90;;;;;;5005959;28;20042;-71
2023/01/10 06:52:36;;;;;;;38.97;9.98;;;5.30;99.90;;;;;;5006747;28;20073;-71
2023/01/10 06:55:03;;;;;;;38.38;10.32;;;5.20;99.90;;;;;;5004406;28;20079;-71
2023/01/10 06:57:32;;;;;;;36.85;10.68;;;5.20;99.90;;;;;;5006971;28;20095;-71
2023/01/10 06:59:58;;;;;;;35.10;9.57;;;5.20;99.90;;;;;;5006953;28;20056;-71
2023/01/10 07:02:24;;;;;;;33.75;10.70;;;5.20;99.90;;;;;;5000102;28;20046;-71
2023/01/10 07:04:49;;;;;;;24.60;9.40;;;5.20;99.90;;;;;;4989496;28;20046;-71
2023/01/10 07:07:15;;;;;;;28.02;12.82;;;5.10;99.90;;;;;;5007362;28;20076;-71
2023/01/10 07:09:41;;;;;;;39.70;11.52;;;5.10;99.90;;;;;;5006570;28;20165;-71
2023/01/10 07:12:06;;;;;;;27.48;10.38;;;5.10;99.90;;;;;;5002715;28;20133;-71
2023/01/10 07:14:32;;;;;;;36.00;10.18;;;5.10;99.90;;;;;;4988945;28;20049;-71
2023/01/10 07:16:58;;;;;;;35.50;10.95;;;5.10;99.90;;;;;;5005927;28;20034;-71
2023/01/10 07:19:23;;;;;;;43.35;11.52;;;5.10;99.90;;;;;;4990088;28;20045;-71
2023/01/10 07:21:49;;;;;;;35.70;12.65;;;5.10;99.90;;;;;;5006548;28;20049;-71
2023/01/10 07:24:16;;;;;;;43.92;12.30;;;5.10;99.90;;;;;;5006327;28;20073;-71
2023/01/10 07:26:41;;;;;;;39.80;12.07;;;5.10;99.90;;;;;;5006198;28;20050;-71
2023/01/10 07:29:07;;;;;;;46.72;12.05;;;5.20;99.90;;;;;;5003367;28;20038;-71
2023/01/10 07:31:33;;;;;;;51.50;14.27;;;5.20;99.90;;;;;;5005984;28;20948;-71
2023/01/10 07:33:58;;;;;;;43.35;12.80;;;5.20;99.90;;;;;;5007379;28;20451;-71
2023/01/10 07:36:24;;;;;;;38.75;12.07;;;5.20;99.90;;;;;;4993205;28;20060;-71
2023/01/10 07:38:50;;;;;;;41.72;12.13;;;5.30;99.90;;;;;;5006528;28;20414;-71
2023/01/10 07:41:15;;;;;;;32.28;10.93;;;5.30;99.90;;;;;;5006372;28;20096;-72
2023/01/10 07:43:41;;;;;;;40.67;11.63;;;5.30;99.90;;;;;;4988523;28;20518;-72
2023/01/10 07:46:08;;;;;;;32.80;11.15;;;5.30;99.90;;;;;;4994620;28;20054;-72
2023/01/10 07:48:35;;;;;;;31.92;10.02;;;5.30;99.90;;;;;;5007860;28;20169;-72
2023/01/10 07:51:01;;;;;;;34.60;11.10;;;5.30;99.90;;;;;;4992798;28;20046;-72
2023/01/10 07:53:28;;;;;;;32.00;10.57;;;5.30;99.90;;;;;;5008559;28;20056;-72
2023/01/10 07:55:57;;;;;;;28.70;10.27;;;5.30;99.90;;;;;;4996966;28;20053;-72
2023/01/10 07:58:23;;;;;;;41.30;12.00;;;5.30;99.90;;;;;;5005593;28;20101;-72
2023/01/10 08:00:49;;;;;;;42.67;10.50;;;5.30;99.90;;;;;;4986513;28;20495;-72
2023/01/10 08:03:16;;;;;;;41.92;9.55;;;5.30;99.90;;;;;;5006817;28;20526;-72
2023/01/10 08:05:43;;;;;;;30.13;9.75;;;5.30;99.90;;;;;;5009186;28;20042;-72
2023/01/10 08:08:10;;;;;;;28.38;10.23;;;5.30;99.90;;;;;;4992402;28;20050;-72
2023/01/10 08:10:37;;;;;;;21.88;9.70;;;5.30;99.90;;;;;;4992241;28;20053;-72
2023/01/10 08:13:03;;;;;;;30.45;10.63;;;5.30;99.90;;;;;;5009817;28;20053;-72
2023/01/10 08:15:30;;;;;;;22.52;9.10;;;5.40;99.90;;;;;;4984867;28;20046;-72
2023/01/10 08:17:59;;;;;;;29.65;10.77;;;5.40;99.90;;;;;;5008389;28;20125;-72
2023/01/10 08:20:26;;;;;;;37.00;10.48;;;5.40;99.90;;;;;;4991055;28;20077;-72
2023/01/10 08:22:51;;;;;;;43.58;11.63;;;5.40;99.90;;;;;;5006993;28;20620;-72
2023/01/10 08:25:17;;;;;;;35.33;10.43;;;5.50;99.90;;;;;;5009155;28;20172;-72
2023/01/10 08:27:42;;;;;;;42.55;12.50;;;5.50;99.90;;;;;;4996395;28;20119;-72
2023/01/10 08:30:09;;;;;;;34.63;10.38;;;5.50;99.90;;;;;;5009405;28;20042;-72
2023/01/10 08:32:34;;;;;;;37.05;10.50;;;5.50;99.90;;;;;;4992348;28;20083;-72
2023/01/10 08:35:01;;;;;;;26.15;10.23;;;5.60;99.90;;;;;;5005177;28;20051;-72
2023/01/10 08:37:27;;;;;;;37.70;9.95;;;5.60;99.90;;;;;;4987575;28;20129;-73
2023/01/10 08:39:53;;;;;;;31.63;10.50;;;5.60;99.90;;;;;;4986741;28;20108;-72
2023/01/10 08:42:19;;;;;;;30.08;10.40;;;5.70;99.90;;;;;;5005486;28;20034;-72
2023/01/10 08:44:44;;;;;;;27.13;10.13;;;5.70;99.90;;;;;;5008995;28;20045;-72
2023/01/10 08:47:10;;;;;;;32.25;10.60;;;5.70;99.90;;;;;;5010064;28;20053;-72
2023/01/10 08:49:35;;;;;;;35.72;10.77;;;5.70;99.90;;;;;;5009516;28;20046;-72
2023/01/10 08:52:01;;;;;;;39.20;11.27;;;5.70;99.90;;;;;;4981109;28;20058;-72
2023/01/10 08:54:27;;;;;;;44.05;10.30;;;5.70;99.90;;;;;;4991210;28;20487;-72
2023/01/10 08:56:53;;;;;;;42.35;10.70;;;5.70;99.90;;;;;;4991637;28;20467;-72
2023/01/10 08:59:19;;;;;;;30.70;9.75;;;5.70;99.90;;;;;;4999020;28;20047;-72
2023/01/10 09:01:44;;;;;;;32.20;9.98;;;5.70;99.90;;;;;;4986544;28;20042;-72
2023/01/10 09:04:10;;;;;;;53.88;10.60;;;5.70;99.90;;;;;;5005380;28;20054;-75
2023/01/10 09:06:36;;;;;;;25.30;10.25;;;5.70;99.90;;;;;;4989055;28;20061;-72
2023/01/10 09:09:02;;;;;;;48.60;10.40;;;5.70;99.90;;;;;;4983066;28;20536;-71
2023/01/10 09:11:28;;;;;;;34.47;9.57;;;5.70;99.90;;;;;;4990780;28;20034;-72
2023/01/10 09:13:54;;;;;;;33.20;10.10;;;5.70;99.90;;;;;;4990597;28;20107;-72
2023/01/10 09:16:20;;;;;;;33.03;10.40;;;5.70;99.90;;;;;;5008234;28;20045;-72
2023/01/10 09:18:46;;;;;;;31.08;9.52;;;5.70;99.90;;;;;;5006921;28;20049;-72
2023/01/10 09:21:11;;;;;;;47.90;11.82;;;5.70;99.90;;;;;;5007841;28;20045;-72
2023/01/10 09:23:38;;;;;;;42.97;11.45;;;5.70;99.90;;;;;;5008756;28;20037;-72
2023/01/10 09:26:04;;;;;;;43.05;12.23;;;5.70;99.90;;;;;;5007653;28;20050;-71
2023/01/10 09:28:30;;;;;;;39.35;11.43;;;5.80;99.90;;;;;;5008547;28;20092;-71
2023/01/10 09:30:56;;;;;;;37.70;9.43;;;5.80;99.90;;;;;;4991345;28;20448;-71
2023/01/10 09:33:21;;;;;;;36.08;10.45;;;5.80;99.90;;;;;;5002285;28;20544;-71
2023/01/10 09:35:47;;;;;;;35.22;9.55;;;5.80;99.90;;;;;;4991124;28;20164;-72
2023/01/10 09:38:17;;;;;;;30.30;9.85;;;5.90;99.90;;;;;;5008809;28;20503;-71
2023/01/10 09:41:13;;;;;;;28.30;9.30;;;5.90;99.90;;;;;;4990560;28;20061;-71
2023/01/10 09:43:39;;;;;;;31.45;9.32;;;5.90;99.90;;;;;;5003606;28;20086;-71
2023/01/10 09:46:11;;;;;;;32.63;9.73;;;5.90;99.90;;;;;;4987778;28;20102;-71
2023/01/10 09:48:36;;;;;;;29.88;10.77;;;6.00;99.90;;;;;;4985004;28;20053;-71
2023/01/10 09:51:31;;;;;;;42.63;8.95;;;6.00;99.90;;;;;;4999742;28;20602;-71
2023/01/10 09:53:59;;;;;;;33.40;10.23;;;6.10;99.90;;;;;;4981772;28;20113;-71
2023/01/10 09:56:27;;;;;;;26.38;10.57;;;6.10;99.90;;;;;;5000436;28;20060;-70
2023/01/10 09:58:52;;;;;;;33.47;10.88;;;6.10;99.90;;;;;;5004129;28;20054;-70
2023/01/10 10:01:24;;;;;;;40.85;11.52;;;6.10;99.90;;;;;;5003454;28;20120;-69
2023/01/10 10:04:17;;;;;;;35.17;10.57;;;6.20;99.90;;;;;;4976865;28;20046;-69
2023/01/10 10:06:42;;;;;;;36.08;11.27;;;6.30;99.90;;;;;;4981414;28;20053;-69
2023/01/10 10:09:13;;;;;;;30.38;10.65;;;6.30;99.90;;;;;;4982675;28;20592;-69
2023/01/10 10:11:56;;;;;;;33.05;9.73;;;6.30;99.90;;;;;;5002407;28;20042;-69
2023/01/10 10:14:45;;;;;;;36.20;10.38;;;6.40;99.90;;;;;;4986379;28;20058;-69
2023/01/10 10:17:20;;;;;;;35.35;11.65;;;6.40;99.90;;;;;;4978288;28;20041;-69
2023/01/10 10:20:18;;;;;;;40.25;12.18;;;6.40;99.90;;;;;;4976301;28;20049;-69
2023/01/10 10:22:52;;;;;;;46.90;11.43;;;6.50;99.90;;;;;;4990041;28;20053;-70
2023/01/10 10:25:38;;;;;;;37.35;12.18;;;6.50;99.90;;;;;;5008197;28;20050;-68
2023/01/10 10:28:22;;;;;;;34.33;11.65;;;6.60;99.90;;;;;;4989374;28;20419;-70
2023/01/10 10:31:18;;;;;;;28.33;11.05;;;6.50;99.90;;;;;;4982386;28;20688;-68
2023/01/10 10:34:04;;;;;;;32.60;10.35;;;6.60;99.90;;;;;;5000673;28;20567;-68
2023/01/10 10:36:44;;;;;;;44.25;12.02;;;6.60;99.90;;;;;;5000679;28;20096;-66
2023/01/10 10:39:35;;;;;;;29.58;12.13;;;6.70;99.90;;;;;;5003833;28;20042;-67
2023/01/10 10:42:03;;;;;;;36.95;14.00;;;6.70;99.90;;;;;;5007912;28;20045;-66
2023/01/10 10:44:54;;;;;;;45.63;14.40;;;6.70;99.90;;;;;;5003330;28;20553;-66
2023/01/10 10:47:22;;;;;;;41.00;14.88;;;6.80;99.90;;;;;;5007617;28;20058;-66
2023/01/10 10:50:28;;;;;;;42.85;17.08;;;6.80;99.90;;;;;;5007949;28;20049;-67
2023/01/10 10:52:54;;;;;;;48.83;15.13;;;6.80;99.90;;;;;;4968583;28;20169;-67
2023/01/10 10:55:27;;;;;;;45.28;16.65;;;6.80;99.90;;;;;;4998783;28;20133;-66
2023/01/10 10:57:54;;;;;;;46.55;17.98;;;6.90;99.90;;;;;;5006435;28;20057;-66
2023/01/10 11:00:21;;;;;;;33.38;16.40;;;6.90;99.90;;;;;;4996110;28;20046;-66
2023/01/10 11:03:06;;;;;;;49.27;16.37;;;6.90;99.90;;;;;;4999344;28;20042;-66
2023/01/10 11:05:35;;;;;;;41.15;16.23;;;6.90;99.90;;;;;;4998579;28;20292;-66
2023/01/10 11:08:14;;;;;;;41.85;16.27;;;6.90;99.90;;;;;;5005197;28;20038;-66
2023/01/10 11:10:43;;;;;;;46.08;16.35;;;6.90;99.90;;;;;;4998952;28;20056;-66
2023/01/10 11:13:11;;;;;;;39.13;16.55;;;6.90;99.90;;;;;;5003544;28;20050;-66
2023/01/10 11:15:45;;;;;;;46.53;15.65;;;7.00;99.90;;;;;;5006686;28;20053;-66
2023/01/10 11:18:14;;;;;;;32.55;16.52;;;7.00;99.90;;;;;;5006529;28;20049;-67
2023/01/10 11:21:07;;;;;;;44.72;17.15;;;7.00;99.90;;;;;;5012498;28;20085;-66
2023/01/10 11:23:41;;;;;;;33.83;16.52;;;7.00;99.90;;;;;;5000710;28;20046;-66
2023/01/10 11:26:33;;;;;;;40.72;16.35;;;7.00;99.90;;;;;;5006322;28;20730;-66
2023/01/10 11:29:15;;;;;;;39.08;16.92;;;7.10;99.90;;;;;;4976324;28;20068;-66
2023/01/10 11:31:41;;;;;;;38.85;16.08;;;7.10;99.90;;;;;;5002259;28;20038;-67
2023/01/10 11:34:31;;;;;;;36.80;15.63;;;7.10;99.90;;;;;;5006627;28;20402;-66
2023/01/10 11:36:58;;;;;;;45.30;17.27;;;7.10;99.90;;;;;;5005640;28;20560;-67
2023/01/10 11:39:25;;;;;;;40.33;15.35;;;7.10;99.90;;;;;;5009341;28;20415;-67
2023/01/10 11:41:52;;;;;;;59.95;14.23;;;7.10;99.90;;;;;;5008112;28;20046;-67
2023/01/10 11:44:25;;;;;;;35.90;14.07;;;7.10;99.90;;;;;;4995935;28;20132;-67
2023/01/10 11:46:57;;;;;;;47.92;13.63;;;7.10;99.90;;;;;;4991179;28;20115;-66
2023/01/10 11:49:38;;;;;;;38.22;14.35;;;7.10;99.90;;;;;;5010264;28;20056;-66
2023/01/10 11:52:21;;;;;;;34.17;11.60;;;7.10;99.90;;;;;;5010312;28;20077;-67
2023/01/10 11:54:47;;;;;;;34.83;12.88;;;7.10;99.90;;;;;;5010193;28;20100;-67
2023/01/10 11:57:18;;;;;;;37.67;13.60;;;7.10;99.90;;;;;;5001476;28;20468;-66
2023/01/10 12:00:06;;;;;;;41.30;13.73;;;7.10;99.90;;;;;;4979453;28;20499;-66
2023/01/10 12:02:35;;;;;;;;;;;7.10;99.90;;;;;;5011914;28;20045;-66
2023/01/10 12:05:05;;;;;;;32.42;11.85;;;7.10;99.90;;;;;;5007464;28;19936;-66
2023/01/10 12:08:09;;;;;;;27.35;11.13;;;7.10;99.90;;;;;;4999109;28;20085;-66
2023/01/10 12:10:35;;;;;;;41.40;12.05;;;7.10;99.90;;;;;;4990044;28;20434;-67
2023/01/10 12:13:28;;;;;;;33.40;12.52;;;7.10;99.90;;;;;;5007997;28;20049;-67
2023/01/10 12:16:14;;;;;;;36.95;11.63;;;7.10;99.90;;;;;;5007110;28;20056;-66
2023/01/10 12:18:39;;;;;;;27.48;11.73;;;7.10;99.90;;;;;;5010986;28;20050;-66
2023/01/10 12:21:07;;;;;;;35.00;12.07;;;7.10;99.90;;;;;;5010361;28;20121;-66
2023/01/10 12:23:38;;;;;;;24.90;10.88;;;7.10;99.90;;;;;;5008332;28;20100;-67
2023/01/10 12:26:04;;;;;;;31.27;11.05;;;7.10;99.90;;;;;;5014641;28;20049;-66
2023/01/10 12:28:30;;;;;;;37.47;12.73;;;7.10;99.90;;;;;;5008040;28;20042;-67
2023/01/10 12:30:57;;;;;;;37.53;10.77;;;7.10;99.90;;;;;;5007817;28;20042;-68
2023/01/10 12:33:26;;;;;;;45.15;13.10;;;7.10;99.90;;;;;;5010190;28;20511;-67
2023/01/10 12:36:11;;;;;;;35.47;13.43;;;7.10;99.90;;;;;;5005504;28;20219;-69
2023/01/10 12:39:05;;;;;;;32.90;13.75;;;7.00;99.90;;;;;;4992272;28;20136;-68
2023/01/10 12:44:40;;;;;;;39.83;11.38;;;7.00;99.90;;;;;;4997491;28;20427;-69
2023/01/10 12:47:24;;;;;;;27.50;10.70;;;7.00;99.90;;;;;;5005111;28;20128;-69
2023/01/10 12:49:58;;;;;;;32.42;10.25;;;6.90;99.90;;;;;;5001893;28;20060;-69
2023/01/10 12:52:52;;;;;;;31.73;11.23;;;6.90;99.90;;;;;;4985690;28;20136;-69
2023/01/10 12:55:22;;;;;;;36.35;12.32;;;6.90;99.90;;;;;;5000804;28;20046;-68
2023/01/10 12:57:52;;;;;;;33.03;10.48;;;6.90;99.90;;;;;;4991984;28;20418;-69
2023/01/10 13:00:35;;;;;;;40.97;11.90;;;6.90;99.90;;;;;;4991422;28;20129;-69
2023/01/10 13:03:11;;;;;;;18.50;9.27;;;6.80;99.90;;;;;;5007147;28;20089;-69
2023/01/10 13:05:36;;;;;;;28.17;10.93;;;6.80;99.90;;;;;;5008185;28;20384;-69